sensor_id;sensor_type;location;lat;lon;timestamp;temperature;humidity
36752;DHT22;22718;49.494;7.036;2023-05-07T00:02:01;13.60;99.90
36752;DHT22;22718;49.494;7.036;2023-05-07T00:04:26;13.60;99.90
36752;DHT22;22718;49.494;7.036;2023-05-07T00:06:53;13.50;99.90
36752;DHT22;22718;49.494;7.036;2023-05-07T00:09:19;13.50;99.90
36752;DHT22;22718;49.494;7.036;2023-05-07T00:11:44;13.50;99.90
36752;DHT22;22718;49.494;7.036;2023-05-07T00:14:13;13.40;99.90
36752;DHT22;22718;49.494;7.036;2023-05-07T00:16:44;13.40;99.90
36752;DHT22;22718;49.494;7.036;2023-05-07T00:19:09;13.20;99.90
36752;DHT22;22718;49.494;7.036;2023-05-07T00:21:37;13.40;99.90
36752;DHT22;22718;49.494;7.036;2023-05-07T00:24:06;13.40;99.90
36752;DHT22;22718;49.494;7.036;2023-05-07T00:26:31;13.30;99.90
36752;DHT22;22718;49.494;7.036;2023-05-07T00:28:59;13.20;99.90
36752;DHT22;22718;49.494;7.036;2023-05-07T00:31:25;13.20;99.90
36752;DHT22;22718;49.494;7.036;2023-05-07T00:33:53;13.10;99.90
36752;DHT22;22718;49.494;7.036;2023-05-07T00:36:22;13.10;99.90
36752;DHT22;22718;49.494;7.036;2023-05-07T00:38:48;13.10;99.90
36752;DHT22;22718;49.494;7.036;2023-05-07T00:41:14;13.10;99.90
36752;DHT22;22718;49.494;7.036;2023-05-07T00:43:39;13.10;99.90
36752;DHT22;22718;49.494;7.036;2023-05-07T00:46:05;13.00;99.90
36752;DHT22;22718;49.494;7.036;2023-05-07T00:48:31;13.00;99.90
36752;DHT22;22718;49.494;7.036;2023-05-07T00:51:01;13.00;99.90
36752;DHT22;22718;49.494;7.036;2023-05-07T00:53:26;12.90;99.90
36752;DHT22;22718;49.494;7.036;2023-05-07T00:55:52;12.90;99.90
36752;DHT22;22718;49.494;7.036;2023-05-07T00:58:18;12.80;99.90
36752;DHT22;22718;49.494;7.036;2023-05-07T01:00:45;12.90;99.90
36752;DHT22;22718;49.494;7.036;2023-05-07T01:03:10;12.80;99.90
36752;DHT22;22718;49.494;7.036;2023-05-07T01:05:38;12.80;99.90
36752;DHT22;22718;49.494;7.036;2023-05-07T01:08:08;12.80;99.90
36752;DHT22;22718;49.494;7.036;2023-05-07T01:10:34;12.80;99.90
36752;DHT22;22718;49.494;7.036;2023-05-07T01:13:04;12.80;99.90
36752;DHT22;22718;49.494;7.036;2023-05-07T01:15:30;12.80;99.90
36752;DHT22;22718;49.494;7.036;2023-05-07T01:18:01;12.80;99.90
36752;DHT22;22718;49.494;7.036;2023-05-07T01:20:27;12.80;99.90
36752;DHT22;22718;49.494;7.036;2023-05-07T01:22:53;12.80;99.90
36752;DHT22;22718;49.494;7.036;2023-05-07T01:25:20;12.80;99.90
36752;DHT22;22718;49.494;7.036;2023-05-07T01:28:07;12.80;99.90
36752;DHT22;22718;49.494;7.036;2023-05-07T01:30:32;12.70;99.90
36752;DHT22;22718;49.494;7.036;2023-05-07T01:33:01;12.70;99.90
36752;DHT22;22718;49.494;7.036;2023-05-07T01:35:38;12.70;99.90
36752;DHT22;22718;49.494;7.036;2023-05-07T01:38:06;12.70;99.90
36752;DHT22;22718;49.494;7.036;2023-05-07T01:40:32;12.70;99.90
36752;DHT22;22718;49.494;7.036;2023-05-07T01:42:59;12.60;99.90
36752;DHT22;22718;49.494;7.036;2023-05-07T01:45:25;12.60;99.90
36752;DHT22;22718;49.494;7.036;2023-05-07T01:47:57;12.60;99.90
36752;DHT22;22718;49.494;7.036;2023-05-07T01:50:26;12.60;99.90
36752;DHT22;22718;49.494;7.036;2023-05-07T01:52:52;12.60;99.90
36752;DHT22;22718;49.494;7.036;2023-05-07T01:55:18;12.60;99.90
36752;DHT22;22718;49.494;7.036;2023-05-07T01:57:44;12.60;99.90
36752;DHT22;22718;49.494;7.036;2023-05-07T02:00:12;12.60;99.90
36752;DHT22;22718;49.494;7.036;2023-05-07T02:02:37;12.60;99.90
36752;DHT22;22718;49.494;7.036;2023-05-07T02:05:06;12.60;99.90
36752;DHT22;22718;49.494;7.036;2023-05-07T02:07:32;12.60;99.90
36752;DHT22;22718;49.494;7.036;2023-05-07T02:10:00;12.60;99.90
36752;DHT22;22718;49.494;7.036;2023-05-07T02:12:29;12.60;99.90
36752;DHT22;22718;49.494;7.036;2023-05-07T02:14:54;12.50;99.90
36752;DHT22;22718;49.494;7.036;2023-05-07T02:17:20;12.40;99.90
36752;DHT22;22718;49.494;7.036;2023-05-07T02:19:48;12.40;99.90
36752;DHT22;22718;49.494;7.036;2023-05-07T02:22:14;12.40;99.90
36752;DHT22;22718;49.494;7.036;2023-05-07T02:24:40;12.40;99.90
36752;DHT22;22718;49.494;7.036;2023-05-07T02:27:06;12.30;99.90
36752;DHT22;22718;49.494;7.036;2023-05-07T02:29:32;12.30;99.90
36752;DHT22;22718;49.494;7.036;2023-05-07T02:32:01;12.30;99.90
36752;DHT22;22718;49.494;7.036;2023-05-07T02:34:30;12.30;99.90
36752;DHT22;22718;49.494;7.036;2023-05-07T02:36:55;12.30;99.90
36752;DHT22;22718;49.494;7.036;2023-05-07T02:39:26;12.30;99.90
36752;DHT22;22718;49.494;7.036;2023-05-07T02:41:52;12.30;99.90
36752;DHT22;22718;49.494;7.036;2023-05-07T02:44:17;12.20;99.90
36752;DHT22;22718;49.494;7.036;2023-05-07T02:46:45;12.20;99.90
36752;DHT22;22718;49.494;7.036;2023-05-07T02:49:11;12.10;99.90
36752;DHT22;22718;49.494;7.036;2023-05-07T02:51:36;12.20;99.90
36752;DHT22;22718;49.494;7.036;2023-05-07T02:54:05;12.20;99.90
36752;DHT22;22718;49.494;7.036;2023-05-07T02:56:31;12.10;99.90
36752;DHT22;22718;49.494;7.036;2023-05-07T02:58:59;12.10;99.90
36752;DHT22;22718;49.494;7.036;2023-05-07T03:01:28;12.10;99.90
36752;DHT22;22718;49.494;7.036;2023-05-07T03:03:54;12.10;99.90
36752;DHT22;22718;49.494;7.036;2023-05-07T03:06:22;12.10;99.90
36752;DHT22;22718;49.494;7.036;2023-05-07T03:08:48;12.00;99.90
36752;DHT22;22718;49.494;7.036;2023-05-07T03:11:13;12.00;99.90
36752;DHT22;22718;49.494;7.036;2023-05-07T03:13:42;12.00;99.90
36752;DHT22;22718;49.494;7.036;2023-05-07T03:16:10;12.00;99.90
36752;DHT22;22718;49.494;7.036;2023-05-07T03:18:36;12.00;99.90
36752;DHT22;22718;49.494;7.036;2023-05-07T03:21:01;11.90;99.90
36752;DHT22;22718;49.494;7.036;2023-05-07T03:23:29;12.00;99.90
36752;DHT22;22718;49.494;7.036;2023-05-07T03:25:55;12.00;99.90
36752;DHT22;22718;49.494;7.036;2023-05-07T03:28:23;12.00;99.90
36752;DHT22;22718;49.494;7.036;2023-05-07T03:30:49;12.00;99.90
36752;DHT22;22718;49.494;7.036;2023-05-07T03:33:15;12.00;99.90
36752;DHT22;22718;49.494;7.036;2023-05-07T03:35:43;12.00;99.90
36752;DHT22;22718;49.494;7.036;2023-05-07T03:38:08;11.90;99.90
36752;DHT22;22718;49.494;7.036;2023-05-07T03:40:34;11.90;99.90
36752;DHT22;22718;49.494;7.036;2023-05-07T03:43:02;11.90;99.90
36752;DHT22;22718;49.494;7.036;2023-05-07T03:47:56;11.80;99.90
36752;DHT22;22718;49.494;7.036;2023-05-07T03:50:22;11.80;99.90
36752;DHT22;22718;49.494;7.036;2023-05-07T03:55:14;11.90;99.90
36752;DHT22;22718;49.494;7.036;2023-05-07T03:57:43;11.80;99.90
36752;DHT22;22718;49.494;7.036;2023-05-07T04:00:09;11.90;99.90
36752;DHT22;22718;49.494;7.036;2023-05-07T04:02:34;11.90;99.90
36752;DHT22;22718;49.494;7.036;2023-05-07T04:05:00;12.00;99.90
36752;DHT22;22718;49.494;7.036;2023-05-07T04:07:26;11.90;99.90
36752;DHT22;22718;49.494;7.036;2023-05-07T04:09:54;12.10;99.90
36752;DHT22;22718;49.494;7.036;2023-05-07T04:14:46;12.00;99.90
36752;DHT22;22718;49.494;7.036;2023-05-07T04:17:11;12.00;99.90
36752;DHT22;22718;49.494;7.036;2023-05-07T04:19:37;12.20;99.90
36752;DHT22;22718;49.494;7.036;2023-05-07T04:22:02;12.20;99.90
36752;DHT22;22718;49.494;7.036;2023-05-07T04:24:30;12.30;99.90
36752;DHT22;22718;49.494;7.036;2023-05-07T04:26:56;12.40;99.90
36752;DHT22;22718;49.494;7.036;2023-05-07T04:29:23;12.50;99.90
36752;DHT22;22718;49.494;7.036;2023-05-07T04:31:49;13.00;99.90
36752;DHT22;22718;49.494;7.036;2023-05-07T04:34:15;13.40;99.90
36752;DHT22;22718;49.494;7.036;2023-05-07T04:36:41;13.40;99.90
36752;DHT22;22718;49.494;7.036;2023-05-07T04:39:10;13.80;99.90
36752;DHT22;22718;49.494;7.036;2023-05-07T04:41:36;14.50;99.90
36752;DHT22;22718;49.494;7.036;2023-05-07T04:44:01;14.90;99.90
36752;DHT22;22718;49.494;7.036;2023-05-07T04:46:30;15.60;99.90
36752;DHT22;22718;49.494;7.036;2023-05-07T04:48:58;15.60;99.90
36752;DHT22;22718;49.494;7.036;2023-05-07T04:51:27;16.00;99.90
36752;DHT22;22718;49.494;7.036;2023-05-07T04:53:53;17.90;99.90
36752;DHT22;22718;49.494;7.036;2023-05-07T04:56:18;16.10;99.90
36752;DHT22;22718;49.494;7.036;2023-05-07T04:58:44;15.90;99.90
36752;DHT22;22718;49.494;7.036;2023-05-07T05:01:09;15.90;99.90
36752;DHT22;22718;49.494;7.036;2023-05-07T05:03:35;15.70;99.90
36752;DHT22;22718;49.494;7.036;2023-05-07T05:06:04;15.60;99.90
36752;DHT22;22718;49.494;7.036;2023-05-07T05:08:33;15.40;99.90
36752;DHT22;22718;49.494;7.036;2023-05-07T05:11:01;15.30;99.90
36752;DHT22;22718;49.494;7.036;2023-05-07T05:13:27;15.30;99.90
36752;DHT22;22718;49.494;7.036;2023-05-07T05:16:00;15.10;99.90
36752;DHT22;22718;49.494;7.036;2023-05-07T05:18:26;15.20;99.90
36752;DHT22;22718;49.494;7.036;2023-05-07T05:20:54;15.10;99.90
36752;DHT22;22718;49.494;7.036;2023-05-07T05:23:20;15.30;99.90
36752;DHT22;22718;49.494;7.036;2023-05-07T05:25:45;15.30;99.90
36752;DHT22;22718;49.494;7.036;2023-05-07T05:28:13;15.30;99.90
36752;DHT22;22718;49.494;7.036;2023-05-07T05:30:41;15.40;99.90
36752;DHT22;22718;49.494;7.036;2023-05-07T05:33:07;15.50;99.90
36752;DHT22;22718;49.494;7.036;2023-05-07T05:35:33;15.50;99.90
36752;DHT22;22718;49.494;7.036;2023-05-07T05:38:00;15.60;99.90
36752;DHT22;22718;49.494;7.036;2023-05-07T05:40:25;15.70;99.90
36752;DHT22;22718;49.494;7.036;2023-05-07T05:42:51;15.70;99.90
36752;DHT22;22718;49.494;7.036;2023-05-07T05:48:08;15.80;99.90
36752;DHT22;22718;49.494;7.036;2023-05-07T05:50:34;15.80;99.90
36752;DHT22;22718;49.494;7.036;2023-05-07T05:53:01;15.80;99.90
36752;DHT22;22718;49.494;7.036;2023-05-07T05:55:27;15.90;99.90
36752;DHT22;22718;49.494;7.036;2023-05-07T05:57:53;16.00;99.90
36752;DHT22;22718;49.494;7.036;2023-05-07T06:00:18;16.10;99.90
36752;DHT22;22718;49.494;7.036;2023-05-07T06:02:53;16.30;99.90
36752;DHT22;22718;49.494;7.036;2023-05-07T06:05:19;16.40;99.90
36752;DHT22;22718;49.494;7.036;2023-05-07T06:10:10;16.50;99.90
36752;DHT22;22718;49.494;7.036;2023-05-07T06:12:36;16.50;99.90
36752;DHT22;22718;49.494;7.036;2023-05-07T06:15:01;16.50;99.90
36752;DHT22;22718;49.494;7.036;2023-05-07T06:17:27;16.40;99.90
36752;DHT22;22718;49.494;7.036;2023-05-07T06:19:53;16.40;99.90
36752;DHT22;22718;49.494;7.036;2023-05-07T06:22:21;16.40;99.90
36752;DHT22;22718;49.494;7.036;2023-05-07T06:24:47;16.40;99.90
36752;DHT22;22718;49.494;7.036;2023-05-07T06:27:15;16.40;99.90
36752;DHT22;22718;49.494;7.036;2023-05-07T06:29:41;16.50;99.90
36752;DHT22;22718;49.494;7.036;2023-05-07T06:32:07;16.60;99.90
36752;DHT22;22718;49.494;7.036;2023-05-07T06:34:35;16.60;99.90
36752;DHT22;22718;49.494;7.036;2023-05-07T06:37:01;16.70;99.90
36752;DHT22;22718;49.494;7.036;2023-05-07T06:39:26;16.90;99.90
36752;DHT22;22718;49.494;7.036;2023-05-07T06:41:52;18.90;99.90
36752;DHT22;22718;49.494;7.036;2023-05-07T06:44:17;17.10;99.90
36752;DHT22;22718;49.494;7.036;2023-05-07T06:46:46;17.20;99.90
36752;DHT22;22718;49.494;7.036;2023-05-07T06:49:12;17.40;99.90
36752;DHT22;22718;49.494;7.036;2023-05-07T06:54:06;17.60;99.90
36752;DHT22;22718;49.494;7.036;2023-05-07T06:56:32;17.60;99.90
36752;DHT22;22718;49.494;7.036;2023-05-07T06:58:59;17.70;99.90
36752;DHT22;22718;49.494;7.036;2023-05-07T07:01:25;17.70;99.90
36752;DHT22;22718;49.494;7.036;2023-05-07T07:03:52;17.60;99.90
36752;DHT22;22718;49.494;7.036;2023-05-07T07:06:20;17.60;99.90
36752;DHT22;22718;49.494;7.036;2023-05-07T07:08:45;17.70;99.90
36752;DHT22;22718;49.494;7.036;2023-05-07T07:11:16;17.80;99.90
36752;DHT22;22718;49.494;7.036;2023-05-07T07:13:46;17.80;99.90
36752;DHT22;22718;49.494;7.036;2023-05-07T07:16:18;17.80;99.90
36752;DHT22;22718;49.494;7.036;2023-05-07T07:18:44;17.80;99.90
36752;DHT22;22718;49.494;7.036;2023-05-07T07:21:10;17.80;99.90
36752;DHT22;22718;49.494;7.036;2023-05-07T07:23:38;17.80;99.90
36752;DHT22;22718;49.494;7.036;2023-05-07T07:26:07;17.90;99.90
36752;DHT22;22718;49.494;7.036;2023-05-07T07:31:10;18.00;99.90
36752;DHT22;22718;49.494;7.036;2023-05-07T07:33:40;17.80;99.90
36752;DHT22;22718;49.494;7.036;2023-05-07T07:36:09;20.20;99.90
36752;DHT22;22718;49.494;7.036;2023-05-07T07:41:11;18.00;99.90
36752;DHT22;22718;49.494;7.036;2023-05-07T07:43:36;16.40;99.90
36752;DHT22;22718;49.494;7.036;2023-05-07T07:46:12;18.20;99.90
36752;DHT22;22718;49.494;7.036;2023-05-07T07:51:04;18.30;99.90
36752;DHT22;22718;49.494;7.036;2023-05-07T07:53:32;18.30;99.90
36752;DHT22;22718;49.494;7.036;2023-05-07T07:56:04;18.30;99.90
36752;DHT22;22718;49.494;7.036;2023-05-07T07:58:39;18.40;99.90
36752;DHT22;22718;49.494;7.036;2023-05-07T08:01:05;18.30;99.90
36752;DHT22;22718;49.494;7.036;2023-05-07T08:03:33;18.50;99.90
36752;DHT22;22718;49.494;7.036;2023-05-07T08:06:19;18.50;99.90
36752;DHT22;22718;49.494;7.036;2023-05-07T08:08:50;18.40;99.90
36752;DHT22;22718;49.494;7.036;2023-05-07T08:11:15;18.40;99.90
36752;DHT22;22718;49.494;7.036;2023-05-07T08:13:41;18.40;99.90
36752;DHT22;22718;49.494;7.036;2023-05-07T08:16:07;18.50;99.90
36752;DHT22;22718;49.494;7.036;2023-05-07T08:18:36;18.70;99.90
36752;DHT22;22718;49.494;7.036;2023-05-07T08:21:09;18.60;99.90
36752;DHT22;22718;49.494;7.036;2023-05-07T08:23:36;18.80;99.90
36752;DHT22;22718;49.494;7.036;2023-05-07T08:26:02;19.00;99.90
36752;DHT22;22718;49.494;7.036;2023-05-07T08:28:29;19.30;99.90
36752;DHT22;22718;49.494;7.036;2023-05-07T08:30:57;19.80;99.90
36752;DHT22;22718;49.494;7.036;2023-05-07T08:33:29;19.80;99.90
36752;DHT22;22718;49.494;7.036;2023-05-07T08:36:01;19.80;99.90
36752;DHT22;22718;49.494;7.036;2023-05-07T08:38:32;19.80;99.90
36752;DHT22;22718;49.494;7.036;2023-05-07T08:41:00;19.80;99.90
36752;DHT22;22718;49.494;7.036;2023-05-07T08:43:26;20.00;99.90
36752;DHT22;22718;49.494;7.036;2023-05-07T08:46:00;20.30;99.90
36752;DHT22;22718;49.494;7.036;2023-05-07T08:48:31;20.30;99.90
36752;DHT22;22718;49.494;7.036;2023-05-07T08:51:21;20.30;99.90
36752;DHT22;22718;49.494;7.036;2023-05-07T08:53:46;20.30;99.90
36752;DHT22;22718;49.494;7.036;2023-05-07T08:56:16;20.40;99.90
36752;DHT22;22718;49.494;7.036;2023-05-07T08:58:59;20.60;99.90
36752;DHT22;22718;49.494;7.036;2023-05-07T09:01:40;20.70;99.90
36752;DHT22;22718;49.494;7.036;2023-05-07T09:04:08;20.80;99.90
36752;DHT22;22718;49.494;7.036;2023-05-07T09:09:09;21.20;99.90
36752;DHT22;22718;49.494;7.036;2023-05-07T09:11:42;21.40;99.90
36752;DHT22;22718;49.494;7.036;2023-05-07T09:14:16;21.60;99.90
36752;DHT22;22718;49.494;7.036;2023-05-07T09:16:48;21.70;99.90
36752;DHT22;22718;49.494;7.036;2023-05-07T09:19:16;21.60;99.90
36752;DHT22;22718;49.494;7.036;2023-05-07T09:22:05;22.10;99.90
36752;DHT22;22718;49.494;7.036;2023-05-07T09:27:14;22.50;99.90
36752;DHT22;22718;49.494;7.036;2023-05-07T09:29:52;22.60;99.90
36752;DHT22;22718;49.494;7.036;2023-05-07T09:32:17;22.60;99.90
36752;DHT22;22718;49.494;7.036;2023-05-07T09:34:46;22.40;99.90
36752;DHT22;22718;49.494;7.036;2023-05-07T09:37:15;22.10;99.90
36752;DHT22;22718;49.494;7.036;2023-05-07T09:39:45;22.20;99.90
36752;DHT22;22718;49.494;7.036;2023-05-07T09:42:11;22.50;99.90
36752;DHT22;22718;49.494;7.036;2023-05-07T09:44:48;22.80;99.90
36752;DHT22;22718;49.494;7.036;2023-05-07T09:47:16;22.70;99.90
36752;DHT22;22718;49.494;7.036;2023-05-07T09:49:46;22.10;99.90
36752;DHT22;22718;49.494;7.036;2023-05-07T09:52:13;21.60;99.90
36752;DHT22;22718;49.494;7.036;2023-05-07T09:54:44;21.70;99.90
36752;DHT22;22718;49.494;7.036;2023-05-07T09:57:13;22.10;99.90
36752;DHT22;22718;49.494;7.036;2023-05-07T09:59:39;22.60;99.90
36752;DHT22;22718;49.494;7.036;2023-05-07T10:02:10;23.00;99.90
36752;DHT22;22718;49.494;7.036;2023-05-07T10:04:36;23.20;99.90
36752;DHT22;22718;49.494;7.036;2023-05-07T10:07:04;23.20;99.90
36752;DHT22;22718;49.494;7.036;2023-05-07T10:09:34;23.60;99.90
36752;DHT22;22718;49.494;7.036;2023-05-07T10:12:05;23.00;99.90
36752;DHT22;22718;49.494;7.036;2023-05-07T10:14:37;23.40;99.90
36752;DHT22;22718;49.494;7.036;2023-05-07T10:17:02;23.90;99.90
36752;DHT22;22718;49.494;7.036;2023-05-07T10:19:32;24.50;99.90
36752;DHT22;22718;49.494;7.036;2023-05-07T10:22:05;24.40;99.90
36752;DHT22;22718;49.494;7.036;2023-05-07T10:27:09;24.20;99.90
36752;DHT22;22718;49.494;7.036;2023-05-07T10:35:26;24.80;99.90
36752;DHT22;22718;49.494;7.036;2023-05-07T10:38:02;24.80;99.90
36752;DHT22;22718;49.494;7.036;2023-05-07T10:40:36;25.00;99.90
36752;DHT22;22718;49.494;7.036;2023-05-07T10:43:05;24.90;99.90
36752;DHT22;22718;49.494;7.036;2023-05-07T10:45:31;24.90;99.90
36752;DHT22;22718;49.494;7.036;2023-05-07T10:48:15;24.80;99.90
36752;DHT22;22718;49.494;7.036;2023-05-07T10:50:43;25.10;99.90
36752;DHT22;22718;49.494;7.036;2023-05-07T10:58:44;25.00;99.90
36752;DHT22;22718;49.494;7.036;2023-05-07T11:01:19;25.00;99.90
36752;DHT22;22718;49.494;7.036;2023-05-07T11:20:46;25.80;99.90
36752;DHT22;22718;49.494;7.036;2023-05-07T11:26:10;26.20;99.90
36752;DHT22;22718;49.494;7.036;2023-05-07T11:28:52;25.70;99.90
36752;DHT22;22718;49.494;7.036;2023-05-07T11:31:24;25.20;99.90
36752;DHT22;22718;49.494;7.036;2023-05-07T11:34:01;25.20;99.90
36752;DHT22;22718;49.494;7.036;2023-05-07T11:36:30;25.20;99.90
36752;DHT22;22718;49.494;7.036;2023-05-07T11:39:03;25.00;99.90
36752;DHT22;22718;49.494;7.036;2023-05-07T11:41:36;25.00;99.90
36752;DHT22;22718;49.494;7.036;2023-05-07T11:44:08;25.00;99.90
36752;DHT22;22718;49.494;7.036;2023-05-07T11:46:36;25.10;99.90
36752;DHT22;22718;49.494;7.036;2023-05-07T11:49:05;25.30;99.90
36752;DHT22;22718;49.494;7.036;2023-05-07T11:54:44;25.40;99.90
36752;DHT22;22718;49.494;7.036;2023-05-07T11:57:19;26.10;99.90
36752;DHT22;22718;49.494;7.036;2023-05-07T11:59:47;26.00;99.90
36752;DHT22;22718;49.494;7.036;2023-05-07T12:15:18;26.40;99.90
36752;DHT22;22718;49.494;7.036;2023-05-07T12:17:50;25.90;99.90
36752;DHT22;22718;49.494;7.036;2023-05-07T12:20:20;26.70;99.90
36752;DHT22;22718;49.494;7.036;2023-05-07T12:23:05;26.20;99.90
36752;DHT22;22718;49.494;7.036;2023-05-07T12:25:52;25.80;99.90
36752;DHT22;22718;49.494;7.036;2023-05-07T12:28:45;25.70;99.90
36752;DHT22;22718;49.494;7.036;2023-05-07T12:31:20;25.60;98.20
36752;DHT22;22718;49.494;7.036;2023-05-07T12:33:55;25.60;99.90
36752;DHT22;22718;49.494;7.036;2023-05-07T12:36:21;25.50;99.20
36752;DHT22;22718;49.494;7.036;2023-05-07T12:38:51;25.80;99.90
36752;DHT22;22718;49.494;7.036;2023-05-07T12:41:24;25.40;99.90
36752;DHT22;22718;49.494;7.036;2023-05-07T12:44:03;25.30;99.90
36752;DHT22;22718;49.494;7.036;2023-05-07T12:46:38;23.40;99.70
36752;DHT22;22718;49.494;7.036;2023-05-07T12:49:14;24.90;99.90
36752;DHT22;22718;49.494;7.036;2023-05-07T12:51:42;24.90;99.90
36752;DHT22;22718;49.494;7.036;2023-05-07T12:54:27;24.70;99.90
36752;DHT22;22718;49.494;7.036;2023-05-07T12:59:33;24.20;99.90
36752;DHT22;22718;49.494;7.036;2023-05-07T13:02:00;24.10;99.90
36752;DHT22;22718;49.494;7.036;2023-05-07T13:04:28;24.40;99.90
36752;DHT22;22718;49.494;7.036;2023-05-07T13:07:04;23.90;99.90
36752;DHT22;22718;49.494;7.036;2023-05-07T13:09:30;25.40;99.90
36752;DHT22;22718;49.494;7.036;2023-05-07T13:11:56;24.00;99.90
36752;DHT22;22718;49.494;7.036;2023-05-07T13:14:27;23.60;99.90
36752;DHT22;22718;49.494;7.036;2023-05-07T13:16:55;23.80;99.90
36752;DHT22;22718;49.494;7.036;2023-05-07T13:19:24;23.90;99.90
36752;DHT22;22718;49.494;7.036;2023-05-07T13:21:50;23.70;99.90
36752;DHT22;22718;49.494;7.036;2023-05-07T13:24:18;23.70;99.90
36752;DHT22;22718;49.494;7.036;2023-05-07T13:26:44;23.50;99.90
36752;DHT22;22718;49.494;7.036;2023-05-07T13:29:11;23.40;99.90
36752;DHT22;22718;49.494;7.036;2023-05-07T13:31:37;23.30;99.90
36752;DHT22;22718;49.494;7.036;2023-05-07T13:34:14;23.30;99.90
36752;DHT22;22718;49.494;7.036;2023-05-07T13:36:43;23.30;99.90
36752;DHT22;22718;49.494;7.036;2023-05-07T13:41:39;23.40;99.90
36752;DHT22;22718;49.494;7.036;2023-05-07T13:44:05;23.30;99.90
36752;DHT22;22718;49.494;7.036;2023-05-07T13:46:33;23.30;99.90
36752;DHT22;22718;49.494;7.036;2023-05-07T13:49:01;23.40;99.90
36752;DHT22;22718;49.494;7.036;2023-05-07T13:51:27;23.40;99.90
36752;DHT22;22718;49.494;7.036;2023-05-07T13:53:55;23.50;99.90
36752;DHT22;22718;49.494;7.036;2023-05-07T13:56:20;23.60;99.90
36752;DHT22;22718;49.494;7.036;2023-05-07T13:58:46;23.40;99.90
36752;DHT22;22718;49.494;7.036;2023-05-07T14:01:14;23.30;99.90
36752;DHT22;22718;49.494;7.036;2023-05-07T14:03:42;23.20;99.90
36752;DHT22;22718;49.494;7.036;2023-05-07T14:06:07;23.20;99.90
36752;DHT22;22718;49.494;7.036;2023-05-07T14:08:33;23.20;99.90
36752;DHT22;22718;49.494;7.036;2023-05-07T14:10:59;23.10;99.90
36752;DHT22;22718;49.494;7.036;2023-05-07T14:13:25;23.10;99.90
36752;DHT22;22718;49.494;7.036;2023-05-07T14:15:53;23.10;99.90
36752;DHT22;22718;49.494;7.036;2023-05-07T14:18:24;23.10;99.90
36752;DHT22;22718;49.494;7.036;2023-05-07T14:20:49;23.10;99.90
36752;DHT22;22718;49.494;7.036;2023-05-07T14:23:18;23.00;99.90
36752;DHT22;22718;49.494;7.036;2023-05-07T14:25:52;22.90;99.90
36752;DHT22;22718;49.494;7.036;2023-05-07T14:28:21;22.90;99.90
36752;DHT22;22718;49.494;7.036;2023-05-07T14:30:49;22.80;99.90
36752;DHT22;22718;49.494;7.036;2023-05-07T14:33:15;22.80;99.90
36752;DHT22;22718;49.494;7.036;2023-05-07T14:35:43;22.80;99.90
36752;DHT22;22718;49.494;7.036;2023-05-07T14:38:14;22.60;99.90
36752;DHT22;22718;49.494;7.036;2023-05-07T14:40:39;22.50;99.90
36752;DHT22;22718;49.494;7.036;2023-05-07T14:43:14;22.50;99.90
36752;DHT22;22718;49.494;7.036;2023-05-07T14:45:40;22.40;99.90
36752;DHT22;22718;49.494;7.036;2023-05-07T14:48:08;22.40;99.90
36752;DHT22;22718;49.494;7.036;2023-05-07T14:50:37;22.50;99.90
36752;DHT22;22718;49.494;7.036;2023-05-07T14:53:03;22.60;99.90
36752;DHT22;22718;49.494;7.036;2023-05-07T14:55:29;22.70;99.90
36752;DHT22;22718;49.494;7.036;2023-05-07T15:00:26;22.80;99.90
36752;DHT22;22718;49.494;7.036;2023-05-07T15:05:20;22.70;99.90
36752;DHT22;22718;49.494;7.036;2023-05-07T15:07:45;22.60;99.90
36752;DHT22;22718;49.494;7.036;2023-05-07T15:10:14;22.60;99.90
36752;DHT22;22718;49.494;7.036;2023-05-07T15:12:47;22.40;99.90
36752;DHT22;22718;49.494;7.036;2023-05-07T15:15:19;22.30;99.90
36752;DHT22;22718;49.494;7.036;2023-05-07T15:17:48;21.90;99.90
36752;DHT22;22718;49.494;7.036;2023-05-07T15:20:16;21.80;99.90
36752;DHT22;22718;49.494;7.036;2023-05-07T15:22:42;21.40;99.90
36752;DHT22;22718;49.494;7.036;2023-05-07T15:25:11;21.10;99.90
36752;DHT22;22718;49.494;7.036;2023-05-07T15:27:37;20.90;99.90
36752;DHT22;22718;49.494;7.036;2023-05-07T15:30:02;20.80;99.90
36752;DHT22;22718;49.494;7.036;2023-05-07T15:32:32;20.80;99.90
36752;DHT22;22718;49.494;7.036;2023-05-07T15:35:02;20.70;99.90
36752;DHT22;22718;49.494;7.036;2023-05-07T15:37:27;20.80;99.90
36752;DHT22;22718;49.494;7.036;2023-05-07T15:40:02;20.80;99.90
36752;DHT22;22718;49.494;7.036;2023-05-07T15:42:30;20.80;99.90
36752;DHT22;22718;49.494;7.036;2023-05-07T15:44:55;20.90;99.90
36752;DHT22;22718;49.494;7.036;2023-05-07T15:47:21;21.00;99.90
36752;DHT22;22718;49.494;7.036;2023-05-07T15:49:47;21.00;99.90
36752;DHT22;22718;49.494;7.036;2023-05-07T15:52:13;21.10;99.90
36752;DHT22;22718;49.494;7.036;2023-05-07T15:54:41;21.20;99.90
36752;DHT22;22718;49.494;7.036;2023-05-07T15:57:07;21.30;99.90
36752;DHT22;22718;49.494;7.036;2023-05-07T15:59:34;21.20;99.90
36752;DHT22;22718;49.494;7.036;2023-05-07T16:02:01;21.30;99.90
36752;DHT22;22718;49.494;7.036;2023-05-07T16:07:00;20.90;99.90
36752;DHT22;22718;49.494;7.036;2023-05-07T16:09:25;20.80;99.90
36752;DHT22;22718;49.494;7.036;2023-05-07T16:11:53;20.50;99.90
36752;DHT22;22718;49.494;7.036;2023-05-07T16:14:33;20.40;99.90
36752;DHT22;22718;49.494;7.036;2023-05-07T16:17:01;20.30;99.90
36752;DHT22;22718;49.494;7.036;2023-05-07T16:19:43;20.20;99.90
36752;DHT22;22718;49.494;7.036;2023-05-07T16:22:21;20.10;99.90
36752;DHT22;22718;49.494;7.036;2023-05-07T16:24:49;19.90;99.90
36752;DHT22;22718;49.494;7.036;2023-05-07T16:27:17;19.90;99.90
36752;DHT22;22718;49.494;7.036;2023-05-07T16:29:52;19.80;99.90
36752;DHT22;22718;49.494;7.036;2023-05-07T16:32:18;19.80;99.90
36752;DHT22;22718;49.494;7.036;2023-05-07T16:34:44;19.80;99.90
36752;DHT22;22718;49.494;7.036;2023-05-07T16:37:09;19.90;99.90
36752;DHT22;22718;49.494;7.036;2023-05-07T16:39:35;19.80;99.90
36752;DHT22;22718;49.494;7.036;2023-05-07T16:42:04;19.90;99.90
36752;DHT22;22718;49.494;7.036;2023-05-07T16:44:40;19.80;99.90
36752;DHT22;22718;49.494;7.036;2023-05-07T16:47:17;19.80;99.90
36752;DHT22;22718;49.494;7.036;2023-05-07T16:49:45;19.80;99.90
36752;DHT22;22718;49.494;7.036;2023-05-07T16:52:12;19.70;99.90
36752;DHT22;22718;49.494;7.036;2023-05-07T16:54:41;19.60;99.90
36752;DHT22;22718;49.494;7.036;2023-05-07T16:59:36;19.50;99.90
36752;DHT22;22718;49.494;7.036;2023-05-07T17:02:02;19.30;99.90
36752;DHT22;22718;49.494;7.036;2023-05-07T17:04:40;19.10;99.90
36752;DHT22;22718;49.494;7.036;2023-05-07T17:07:05;18.30;99.90
36752;DHT22;22718;49.494;7.036;2023-05-07T17:09:34;19.10;99.90
36752;DHT22;22718;49.494;7.036;2023-05-07T17:11:59;19.10;99.90